Time;durP1;ratioP1;P1;durP2;ratioP2;P2;SDS_P1;SDS_P2;PMS_P1;PMS_P2;Temp;Humidity;BMP_temperature;BMP_pressure;BME280_temperature;BME280_humidity;BME280_pressure;Samples;Min_cycle;Max_cycle;Signal;HPM_P1;HPM_P2
2023/09/08 00:01:25;;;;;;;14.05;11.00;;;;;;;19.34;100.00;102312.09;5030008;28;20028;-75
2023/09/08 00:03:50;;;;;;;14.00;10.95;;;;;;;19.35;100.00;102311.84;5030187;28;20036;-75
2023/09/08 00:06:16;;;;;;;12.98;10.98;;;;;;;19.34;100.00;102312.94;5039108;28;20025;-75
2023/09/08 00:08:43;;;;;;;18.98;11.40;;;;;;;19.30;100.00;102310.84;5037709;28;20026;-75
2023/09/08 00:11:08;;;;;;;16.38;11.75;;;;;;;19.34;100.00;102314.81;5031868;28;20033;-75
2023/09/08 00:13:34;;;;;;;16.33;11.65;;;;;;;19.31;100.00;102313.38;5031141;28;20030;-75
2023/09/08 00:15:59;;;;;;;18.15;12.30;;;;;;;19.32;100.00;102316.94;5046627;28;20308;-75
2023/09/08 00:18:25;;;;;;;17.92;12.38;;;;;;;19.30;100.00;102314.41;5030929;28;20060;-75
2023/09/08 00:20:50;;;;;;;16.67;11.93;;;;;;;19.30;100.00;102319.03;5029210;28;20084;-75
2023/09/08 00:23:15;;;;;;;16.85;12.30;;;;;;;19.19;100.00;102298.75;5030845;28;20056;-74
2023/09/08 00:25:42;;;;;;;18.40;12.35;;;;;;;19.25;100.00;102309.63;5029624;28;20521;-75
2023/09/08 00:28:08;;;;;;;18.73;12.75;;;;;;;19.25;100.00;102306.06;5031979;28;20048;-75
2023/09/08 00:30:33;;;;;;;18.65;12.70;;;;;;;19.25;100.00;102314.25;5033904;28;20033;-75
2023/09/08 00:32:59;;;;;;;18.38;12.65;;;;;;;19.21;100.00;102308.38;5034929;28;20072;-76
2023/09/08 00:35:24;;;;;;;16.75;12.43;;;;;;;19.24;100.00;102312.56;5033485;28;20065;-75
2023/09/08 00:37:49;;;;;;;20.38;12.90;;;;;;;19.24;100.00;102312.56;5033599;28;20391;-75
2023/09/08 00:40:15;;;;;;;20.70;12.80;;;;;;;19.24;100.00;102316.13;5033394;28;20051;-74
2023/09/08 00:42:40;;;;;;;16.42;13.02;;;;;;;19.27;100.00;102305.81;5033550;28;20037;-75
2023/09/08 00:45:06;;;;;;;18.38;13.60;;;;;;;19.13;100.00;102284.06;5033630;28;20025;-75
2023/09/08 00:47:33;;;;;;;18.27;13.45;;;;;;;19.24;100.00;102299.75;5016090;28;20044;-75
2023/09/08 00:49:58;;;;;;;17.35;12.77;;;;;;;19.27;100.00;102295.75;5033233;28;20035;-75
2023/09/08 00:52:24;;;;;;;17.20;12.73;;;;;;;19.29;100.00;102298.25;5032048;28;20033;-75
2023/09/08 00:54:50;;;;;;;15.73;12.35;;;;;;;19.29;100.00;102292.81;5016664;28;20035;-75
2023/09/08 00:57:15;;;;;;;19.10;13.30;;;;;;;19.29;100.00;102293.63;5033130;28;20048;-75
2023/09/08 00:59:43;;;;;;;22.77;13.80;;;;;;;19.26;100.00;102299.53;5033228;28;20033;-75
2023/09/08 01:02:09;;;;;;;16.80;14.05;;;;;;;19.22;100.00;102296.41;5032972;28;20223;-75
2023/09/08 01:04:34;;;;;;;17.83;13.48;;;;;;;19.24;100.00;102301.66;5033013;28;20041;-75
2023/09/08 01:07:00;;;;;;;18.90;13.88;;;;;;;19.24;100.00;102304.38;5033290;28;20034;-75
2023/09/08 01:09:27;;;;;;;21.15;14.13;;;;;;;19.25;100.00;102297.88;5017585;28;20030;-75
2023/09/08 01:11:55;;;;;;;20.08;14.23;;;;;;;19.24;100.00;102299.75;5039132;28;20488;-75
2023/09/08 01:14:20;;;;;;;18.35;14.40;;;;;;;19.24;100.00;102304.38;5002850;28;20476;-75
2023/09/08 01:16:46;;;;;;;21.55;14.52;;;;;;;19.23;100.00;102308.16;5000655;28;20052;-75
2023/09/08 01:19:15;;;;;;;22.65;15.23;;;;;;;19.23;100.00;102314.44;5032602;28;20021;-75
2023/09/08 01:21:53;;;;;;;23.17;15.95;;;;;;;19.21;100.00;102311.13;5033681;28;20017;-75
2023/09/08 01:24:34;;;;;;;23.65;15.02;;;;;;;19.20;100.00;102305.88;5034525;28;20032;-75
2023/09/08 01:27:00;;;;;;;28.85;15.75;;;;;;;19.20;100.00;102303.13;5034482;28;20021;-74
2023/09/08 01:29:27;;;;;;;24.02;15.48;;;;;;;19.20;100.00;102303.13;5033837;28;20629;-75
2023/09/08 01:31:52;;;;;;;22.45;15.57;;;;;;;19.19;100.00;102299.56;5033007;28;20076;-76
2023/09/08 01:34:19;;;;;;;21.48;16.15;;;;;;;19.16;100.00;102293.72;5032164;28;20419;-74
2023/09/08 01:36:45;;;;;;;24.10;16.40;;;;;;;19.13;100.00;102285.97;5032713;28;20146;-75
2023/09/08 01:39:10;;;;;;;22.92;16.00;;;;;;;19.21;100.00;102299.38;5033910;28;20384;-74
2023/09/08 01:41:36;;;;;;;24.55;16.33;;;;;;;19.19;100.00;102298.75;5031962;28;20033;-75
2023/09/08 01:44:07;;;;;;;21.30;15.90;;;;;;;19.22;100.00;102301.03;5015942;28;20087;-75
2023/09/08 01:46:34;;;;;;;20.88;15.90;;;;;;;19.23;100.00;102294.50;5033769;28;20040;-76
2023/09/08 01:48:59;;;;;;;22.58;16.25;;;;;;;19.21;100.00;102288.47;5033535;28;20029;-75
2023/09/08 01:51:25;;;;;;;21.70;16.60;;;;;;;19.22;100.00;102293.69;5015794;28;20049;-75
2023/09/08 01:53:50;;;;;;;24.27;16.77;;;;;;;19.23;100.00;102289.06;5015956;28;20133;-75
2023/09/08 01:56:18;;;;;;;26.90;17.63;;;;;;;19.24;100.00;102294.31;5032247;28;20365;-75
2023/09/08 01:58:44;;;;;;;23.63;17.42;;;;;;;19.25;100.00;102293.25;5032596;28;20433;-75
2023/09/08 02:01:09;;;;;;;26.48;17.13;;;;;;;19.11;100.00;102266.28;5015537;28;20078;-75
2023/09/08 02:03:35;;;;;;;19.90;17.27;;;;;;;19.28;100.00;102291.13;5033576;28;20037;-75
2023/09/08 02:06:00;;;;;;;25.55;17.30;;;;;;;19.30;100.00;102283.53;5015418;28;20033;-74
2023/09/08 02:08:26;;;;;;;25.38;17.25;;;;;;;19.22;100.00;102271.84;5035393;28;20021;-75
2023/09/08 02:10:51;;;;;;;24.42;17.42;;;;;;;19.33;100.00;102289.41;5033352;28;20052;-75
2023/09/08 02:13:17;;;;;;;25.60;18.10;;;;;;;19.32;100.00;102276.81;5015743;28;20552;-75
2023/09/08 02:15:42;;;;;;;24.70;16.70;;;;;;;19.35;100.00;102281.84;5032100;28;20037;-75
2023/09/08 02:18:08;;;;;;;22.08;16.85;;;;;;;19.36;100.00;102279.94;5039718;28;20033;-75
2023/09/08 02:20:35;;;;;;;27.63;18.30;;;;;;;19.40;100.00;102281.16;5040079;28;20083;-75
2023/09/08 02:23:05;;;;;;;26.60;18.63;;;;;;;19.55;100.00;102275.38;5015574;28;20091;-75
2023/09/08 02:25:31;;;;;;;28.63;18.23;;;;;;;19.55;100.00;102264.47;5031987;28;20044;-74
2023/09/08 02:27:56;;;;;;;29.10;17.80;;;;;;;19.58;100.00;102264.00;5032209;28;20339;-75
2023/09/08 02:30:21;;;;;;;27.38;18.42;;;;;;;19.60;100.00;102270.06;5033510;28;20080;-74
2023/09/08 02:32:47;;;;;;;29.30;19.40;;;;;;;19.64;100.00;102269.44;5033424;28;20552;-74
2023/09/08 02:35:12;;;;;;;28.77;19.08;;;;;;;19.63;100.00;102266.91;5014866;28;20531;-75
2023/09/08 02:37:38;;;;;;;30.73;19.67;;;;;;;19.65;100.00;102262.91;5033820;28;20095;-75
2023/09/08 02:40:05;;;;;;;34.13;20.30;;;;;;;19.69;100.00;102263.31;5032249;28;20075;-75
2023/09/08 02:42:31;;;;;;;32.78;20.10;;;;;;;19.57;100.00;102252.25;5015125;28;20068;-75
2023/09/08 02:44:56;;;;;;;32.63;20.77;;;;;;;19.71;100.00;102263.94;5032176;28;20581;-75
2023/09/08 02:47:21;;;;;;;36.13;22.10;;;;;;;19.70;100.00;102268.56;5015204;28;20551;-75
2023/09/08 02:49:47;;;;;;;36.03;22.30;;;;;;;19.74;100.00;102266.22;5030934;28;20028;-75
2023/09/08 02:52:12;;;;;;;40.88;23.23;;;;;;;19.76;100.00;102261.34;5029889;28;20527;-74
2023/09/08 02:54:39;;;;;;;41.08;24.40;;;;;;;19.57;100.00;102257.72;5015049;28;20029;-75
2023/09/08 02:57:04;;;;;;;47.55;25.02;;;;;;;19.65;100.00;102262.09;5033025;28;20111;-75
2023/09/08 02:59:30;;;;;;;43.13;25.42;;;;;;;19.65;100.00;102260.19;5033003;28;20040;-75
2023/09/08 03:01:55;;;;;;;56.70;28.55;;;;;;;19.68;100.00;102261.63;5032095;28;20047;-75
2023/09/08 03:04:21;;;;;;;54.85;27.52;;;;;;;19.69;100.00;102261.41;5031215;28;20030;-75
2023/09/08 03:06:47;;;;;;;68.20;30.10;;;;;;;19.70;100.00;102259.50;5031818;28;20033;-75
2023/09/08 03:09:14;;;;;;;69.40;31.90;;;;;;;19.75;100.00;102256.13;5032344;28;20061;-75
2023/09/08 03:11:40;;;;;;;76.45;33.85;;;;;;;19.75;100.00;102258.84;5015158;28;20775;-75
2023/09/08 03:14:05;;;;;;;71.28;32.15;;;;;;;19.77;100.00;102265.75;5048619;28;20054;-75
2023/09/08 03:16:31;;;;;;;86.35;34.13;;;;;;;19.75;100.00;102251.47;5051632;28;20013;-74
2023/09/08 03:18:56;;;;;;;80.20;33.63;;;;;;;19.77;100.00;102254.84;5054034;28;20059;-73
2023/09/08 03:21:21;;;;;;;84.80;33.95;;;;;;;19.78;100.00;102252.94;5028992;28;20034;-75
2023/09/08 03:23:47;;;;;;;82.45;34.33;;;;;;;19.81;100.00;102255.22;5022702;28;20507;-75
2023/09/08 03:26:13;;;;;;;103.63;37.17;;;;;;;19.82;100.00;102259.63;5037126;28;20377;-76
2023/09/08 03:28:39;;;;;;;89.05;34.42;;;;;;;19.79;100.00;102252.69;5035997;28;20040;-75
2023/09/08 03:31:05;;;;;;;113.13;37.75;;;;;;;19.81;100.00;102255.22;5016603;28;20159;-75
2023/09/08 03:33:31;;;;;;;102.60;36.08;;;;;;;19.79;100.00;102249.97;5032483;28;20048;-75
2023/09/08 03:35:56;;;;;;;98.40;36.28;;;;;;;19.76;100.00;102239.50;5032047;28;20423;-75
2023/09/08 03:38:22;;;;;;;108.07;38.03;;;;;;;19.84;100.00;102252.03;5031777;28;20771;-75
2023/09/08 03:40:48;;;;;;;95.72;35.60;;;;;;;19.82;100.00;102246.78;5031951;28;20032;-75
2023/09/08 03:43:13;;;;;;;130.90;38.13;;;;;;;19.78;100.00;102239.28;5030755;28;20400;-75
2023/09/08 03:45:39;;;;;;;137.82;40.05;;;;;;;19.79;100.00;102247.22;5030846;28;20033;-75
2023/09/08 03:48:05;;;;;;;136.48;40.67;;;;;;;19.69;100.00;102222.34;5063572;28;20033;-75
2023/09/08 03:50:30;;;;;;;135.00;39.20;;;;;;;19.79;100.00;102236.31;5030539;28;20046;-75
2023/09/08 03:52:56;;;;;;;114.57;37.63;;;;;;;19.69;100.00;102225.06;5031738;28;20124;-75
2023/09/08 03:55:21;;;;;;;123.78;38.85;;;;;;;19.79;100.00;102238.22;5029213;28;20026;-75
2023/09/08 03:57:47;;;;;;;171.80;42.55;;;;;;;19.77;100.00;102241.19;5030371;28;20044;-75
2023/09/08 04:00:19;;;;;;;97.35;34.15;;;;;;;19.61;100.00;102215.25;5047177;28;20066;-74
2023/09/08 04:02:44;;;;;;;108.22;36.67;;;;;;;19.75;100.00;102231.53;5032057;28;20022;-75
2023/09/08 04:05:10;;;;;;;105.70;36.78;;;;;;;19.73;100.00;102222.72;5011661;28;20036;-75
2023/09/08 04:07:36;;;;;;;102.07;36.50;;;;;;;19.70;100.00;102222.13;5030527;28;20100;-74
2023/09/08 04:10:01;;;;;;;101.15;36.10;;;;;;;19.74;100.00;102227.16;5031480;28;20031;-74
2023/09/08 04:12:27;;;;;;;118.15;37.53;;;;;;;19.71;100.00;102233.88;5030842;28;20116;-74
2023/09/08 04:14:52;;;;;;;138.80;40.85;;;;;;;19.71;100.00;102225.69;5014013;28;20036;-74
2023/09/08 04:17:18;;;;;;;141.20;39.33;;;;;;;19.69;100.00;102217.72;5031160;28;20120;-75
2023/09/08 04:19:43;;;;;;;107.95;37.90;;;;;;;19.70;100.00;102222.13;5030264;28;20030;-74
2023/09/08 04:22:09;;;;;;;120.10;40.42;;;;;;;19.72;100.00;102227.34;5030051;28;20033;-74
2023/09/08 04:24:37;;;;;;;130.32;39.05;;;;;;;19.70;100.00;102224.84;5030213;28;20112;-74
2023/09/08 04:27:03;;;;;;;131.07;39.10;;;;;;;19.56;100.00;102203.31;5038030;28;20044;-74
2023/09/08 04:29:28;;;;;;;92.00;35.88;;;;;;;19.69;100.00;102223.16;5043016;28;20036;-73
2023/09/08 04:31:54;;;;;;;153.88;42.60;;;;;;;19.70;100.00;102219.41;5032896;28;20045;-74
2023/09/08 04:34:19;;;;;;;98.70;36.35;;;;;;;19.64;100.00;102212.09;5030655;28;20029;-74
2023/09/08 04:36:44;;;;;;;223.20;48.25;;;;;;;19.59;100.00;102205.59;5030133;28;20396;-73
2023/09/08 04:39:11;;;;;;;145.07;41.08;;;;;;;19.58;100.00;102195.75;5029744;28;20033;-73
2023/09/08 04:41:37;;;;;;;88.20;36.92;;;;;;;19.74;100.00;102216.22;5012865;28;20026;-74
2023/09/08 04:44:03;;;;;;;110.57;39.60;;;;;;;19.74;100.00;102216.22;5028483;28;20033;-74
2023/09/08 04:46:29;;;;;;;135.02;40.78;;;;;;;19.73;100.00;102218.09;5028340;28;20029;-73
2023/09/08 04:48:54;;;;;;;134.13;42.30;;;;;;;19.71;100.00;102212.03;5028058;28;20089;-72
2023/09/08 04:51:21;;;;;;;233.77;48.85;;;;;;;19.77;100.00;102213.00;5028976;28;20065;-73
2023/09/08 04:54:08;;;;;;;152.90;43.47;;;;;;;19.78;100.00;102218.25;5028541;28;20068;-74
2023/09/08 04:56:33;;;;;;;170.05;42.55;;;;;;;19.76;100.00;102219.53;5030718;28;20022;-73
2023/09/08 04:59:00;;;;;;;127.57;37.75;;;;;;;19.75;100.00;102220.63;5029228;28;20040;-73
2023/09/08 05:01:32;;;;;;;150.73;42.17;;;;;;;19.73;100.00;102215.34;5031809;28;20022;-73
2023/09/08 05:03:58;;;;;;;197.77;45.17;;;;;;;19.78;100.00;102223.72;5029597;28;20117;-73
2023/09/08 05:06:23;;;;;;;209.27;45.03;;;;;;;19.73;100.00;102214.53;5031333;28;20069;-73
2023/09/08 05:08:49;;;;;;;164.52;40.63;;;;;;;19.86;100.00;102233.50;5013086;28;20040;-73
2023/09/08 05:11:14;;;;;;;156.10;41.40;;;;;;;19.85;100.00;102234.59;5030610;28;20388;-73
2023/09/08 05:13:40;;;;;;;166.38;41.42;;;;;;;19.87;100.00;102229.75;5026706;28;20041;-73
2023/09/08 05:16:11;;;;;;;231.13;45.42;;;;;;;19.89;100.00;102235.78;5030434;28;20040;-74
2023/09/08 05:18:39;;;;;;;180.52;42.50;;;;;;;19.91;100.00;102228.22;5040403;28;20033;-73
2023/09/08 05:21:04;;;;;;;195.77;42.25;;;;;;;19.90;100.00;102226.53;5028682;28;20041;-74
2023/09/08 05:23:30;;;;;;;158.40;43.65;;;;;;;19.83;100.00;102221.13;5016027;28;20076;-74
2023/09/08 05:25:55;;;;;;;85.75;35.42;;;;;;;19.80;100.00;102215.28;5034636;28;20090;-73
2023/09/08 05:28:21;;;;;;;206.63;42.92;;;;;;;19.90;100.00;102234.72;5034991;28;20108;-73
2023/09/08 05:30:46;;;;;;;113.38;39.00;;;;;;;19.81;100.00;102216.97;5033366;28;20083;-73
2023/09/08 05:33:12;;;;;;;136.02;39.35;;;;;;;19.95;100.00;102232.16;5033038;28;20038;-73
2023/09/08 05:35:37;;;;;;;105.45;37.55;;;;;;;19.98;100.00;102228.97;5033195;28;20033;-73
2023/09/08 05:38:03;;;;;;;200.98;46.67;;;;;;;19.98;100.00;102233.59;5016715;28;20041;-73
2023/09/08 05:40:29;;;;;;;129.13;39.47;;;;;;;19.98;100.00;102230.88;5034269;28;20520;-73
2023/09/08 05:42:54;;;;;;;154.48;41.97;;;;;;;20.00;100.00;102221.41;5042159;28;20026;-73
2023/09/08 05:45:20;;;;;;;117.38;40.55;;;;;;;20.03;100.00;102228.28;5046779;28;20563;-73
2023/09/08 05:47:45;;;;;;;99.82;36.83;;;;;;;20.05;100.00;102223.44;5036099;28;20170;-72
2023/09/08 05:50:11;;;;;;;120.43;40.25;;;;;;;20.09;100.00;102222.75;5033622;28;20530;-74
2023/09/08 05:52:36;;;;;;;131.13;41.45;;;;;;;20.09;100.00;102228.19;5034052;28;20029;-73
2023/09/08 05:55:02;;;;;;;67.28;33.85;;;;;;;20.13;100.00;102226.72;5032409;28;20041;-73
2023/09/08 05:57:27;;;;;;;93.05;37.67;;;;;;;20.16;100.00;102228.13;5015559;28;20714;-73
2023/09/08 05:59:52;;;;;;;107.80;42.60;;;;;;;20.16;100.00;102228.13;5032227;28;20040;-73
2023/09/08 06:02:19;;;;;;;107.88;40.50;;;;;;;20.21;100.00;102227.47;5033483;28;20043;-74
2023/09/08 06:04:45;;;;;;;80.75;37.50;;;;;;;20.12;100.00;102205.88;5033828;28;20037;-73
2023/09/08 06:07:10;;;;;;;67.68;34.10;;;;;;;20.24;100.00;102218.81;5031952;28;20040;-73
2023/09/08 06:09:35;;;;;;;105.30;39.97;;;;;;;20.27;100.00;102213.72;5016640;28;20068;-73
2023/09/08 06:12:01;;;;;;;73.32;35.22;;;;;;;20.30;100.00;102210.50;5032988;28;20021;-73
2023/09/08 06:14:26;;;;;;;71.72;35.08;;;;;;;20.33;100.00;102207.31;5032088;28;20435;-73
2023/09/08 06:16:52;;;;;;;53.33;31.90;;;;;;;20.35;100.00;102207.91;5031638;28;20041;-73
2023/09/08 06:19:17;;;;;;;62.00;32.60;;;;;;;20.35;100.00;102210.66;5030805;28;20064;-73
2023/09/08 06:21:43;;;;;;;65.60;34.08;;;;;;;20.31;100.00;102201.25;5048313;28;20028;-73
2023/09/08 06:24:08;;;;;;;66.45;34.67;;;;;;;20.35;100.00;102202.44;5032557;28;20033;-73
2023/09/08 06:26:33;;;;;;;57.13;32.03;;;;;;;20.41;100.00;102215.19;5015079;28;20457;-73
2023/09/08 06:28:59;;;;;;;51.55;30.48;;;;;;;20.46;100.00;102213.66;5033992;28;20033;-73
2023/09/08 06:31:24;;;;;;;50.30;29.95;;;;;;;20.46;100.00;102213.66;5034703;28;20074;-73
2023/09/08 06:33:51;;;;;;;51.90;29.60;;;;;;;20.44;100.00;102216.63;5035241;28;20495;-73
2023/09/08 06:36:18;;;;;;;57.28;31.20;;;;;;;20.44;100.00;102213.91;5034424;28;20025;-73
2023/09/08 06:38:43;;;;;;;57.45;32.10;;;;;;;20.49;100.00;102210.47;5034002;28;20345;-73
2023/09/08 06:41:10;;;;;;;46.33;28.88;;;;;;;20.53;100.00;102206.22;5036630;28;20030;-73
2023/09/08 06:43:36;;;;;;;45.72;27.83;;;;;;;20.53;100.00;102204.34;5038196;28;20049;-73
2023/09/08 06:46:01;;;;;;;41.95;27.88;;;;;;;20.53;100.00;102192.56;5035917;28;20025;-73
2023/09/08 06:48:27;;;;;;;44.15;27.98;;;;;;;20.56;100.00;102190.22;5032316;28;20029;-73
2023/09/08 06:50:54;;;;;;;45.75;28.77;;;;;;;20.52;100.00;102188.16;5032427;28;20119;-73
2023/09/08 06:53:19;;;;;;;49.30;29.63;;;;;;;20.54;100.00;102192.34;5032553;28;20029;-73
2023/09/08 06:55:45;;;;;;;51.67;29.67;;;;;;;20.55;100.00;102187.69;5032127;28;20433;-74
2023/09/08 06:58:10;;;;;;;44.72;28.38;;;;;;;20.53;100.00;102193.41;5027865;28;20105;-73
2023/09/08 07:00:36;;;;;;;41.50;28.30;;;;;;;20.49;100.00;102172.19;5035347;28;20407;-73
2023/09/08 07:03:02;;;;;;;44.05;28.25;;;;;;;20.53;100.00;102174.28;5032477;28;20448;-73
2023/09/08 07:05:27;;;;;;;39.30;26.75;;;;;;;20.62;100.00;102185.69;5016345;28;20401;-74
2023/09/08 07:07:53;;;;;;;38.38;25.52;;;;;;;20.64;100.00;102159.78;5016013;28;20029;-73
2023/09/08 07:10:19;;;;;;;40.65;26.55;;;;;;;20.76;100.00;102184.47;5035216;28;20120;-73
2023/09/08 07:12:45;;;;;;;33.33;24.00;;;;;;;20.79;100.00;102172.19;5034241;28;20045;-73
2023/09/08 07:15:10;;;;;;;35.92;24.98;;;;;;;20.71;100.00;102164.34;5028825;28;20029;-73
2023/09/08 07:17:36;;;;;;;36.17;24.38;;;;;;;20.78;100.00;102167.81;5017051;28;20056;-73
2023/09/08 07:20:03;;;;;;;33.83;24.15;;;;;;;20.70;100.00;102149.84;5031171;28;20029;-73
2023/09/08 07:22:28;;;;;;;29.52;21.48;;;;;;;20.84;100.00;102164.13;4999233;28;20476;-73
2023/09/08 07:24:53;;;;;;;47.65;25.05;;;;;;;20.87;100.00;102169.13;5032918;28;20113;-73
2023/09/08 07:27:20;;;;;;;40.97;25.77;;;;;;;20.87;100.00;102160.94;5027059;28;20570;-73
2023/09/08 07:29:47;;;;;;;40.83;24.67;;;;;;;20.81;100.00;102148.19;5044792;28;20033;-73
2023/09/08 07:32:13;;;;;;;29.23;21.80;;;;;;;20.79;100.00;102136.63;5030960;28;20029;-73
2023/09/08 07:34:38;;;;;;;33.55;20.20;;;;;;;20.88;100.00;102155.19;5011494;28;20492;-73
2023/09/08 07:37:05;;;;;;;27.48;18.05;;;;;;;20.97;100.00;102163.91;5011496;28;20037;-73
2023/09/08 07:39:32;;;;;;;23.92;18.20;;;;;;;21.01;100.00;102161.53;5025443;28;20043;-73
2023/09/08 07:41:59;;;;;;;27.83;18.60;;;;;;;21.09;100.00;102163.91;5029445;28;20112;-73
2023/09/08 07:44:24;;;;;;;25.30;18.17;;;;;;;20.99;100.00;102158.19;5031873;28;20037;-73
2023/09/08 07:46:51;;;;;;;23.83;18.38;;;;;;;20.93;100.00;102162.72;5029609;28;20503;-73
2023/09/08 07:49:20;;;;;;;27.50;17.58;;;;;;;20.95;100.00;102154.28;5029099;28;20044;-73
2023/09/08 07:51:46;;;;;;;25.80;19.05;;;;;;;20.98;100.00;102160.09;5031725;28;20056;-73
2023/09/08 07:54:13;;;;;;;31.95;19.98;;;;;;;20.92;100.00;102158.31;5032381;28;20029;-73
2023/09/08 07:56:40;;;;;;;25.17;18.58;;;;;;;20.84;100.00;102144.97;5032993;28;20076;-73
2023/09/08 07:59:06;;;;;;;31.42;18.83;;;;;;;20.75;100.00;102141.75;5032002;28;20060;-72
2023/09/08 08:01:32;;;;;;;27.55;18.83;;;;;;;20.81;100.00;102148.19;5036350;28;20029;-73
2023/09/08 08:03:58;;;;;;;22.05;17.42;;;;;;;20.90;100.00;102156.91;5042513;28;20033;-73
2023/09/08 08:06:24;;;;;;;23.40;17.67;;;;;;;20.99;100.00;102149.97;5014033;28;20040;-73
2023/09/08 08:08:49;;;;;;;23.33;17.30;;;;;;;21.04;100.00;102142.75;5011440;28;21184;-73
2023/09/08 08:11:19;;;;;;;23.27;17.30;;;;;;;20.99;100.00;102145.38;5028397;28;20047;-74
2023/09/08 08:13:48;;;;;;;20.73;17.30;;;;;;;21.03;100.00;102152.03;5030133;28;20061;-73
2023/09/08 08:16:14;;;;;;;19.38;16.38;;;;;;;21.27;100.00;102152.03;5031886;28;20124;-73
2023/09/08 08:18:39;;;;;;;27.15;18.45;;;;;;;21.33;100.00;102148.34;5031649;28;20124;-73
2023/09/08 08:21:05;;;;;;;26.17;18.88;;;;;;;21.55;100.00;102154.91;5030609;28;20033;-73
2023/09/08 08:23:31;;;;;;;18.88;15.80;;;;;;;21.63;100.00;102150.16;5030181;28;20025;-73
2023/09/08 08:25:57;;;;;;;26.92;18.58;;;;;;;21.58;100.00;102143.47;5045731;28;20387;-73
2023/09/08 08:28:24;;;;;;;28.63;18.73;;;;;;;21.49;100.00;102142.19;5010682;28;20037;-73
2023/09/08 08:30:50;;;;;;;24.17;17.95;;;;;;;21.53;100.00;102150.75;5030601;28;20606;-73
2023/09/08 08:33:15;;;;;;;20.25;16.35;;;;;;;21.47;100.00;102130.63;5030049;28;20029;-73
2023/09/08 08:35:41;;;;;;;21.73;17.15;;;;;;;21.65;100.00;102145.25;5031133;28;20446;-73
2023/09/08 08:38:06;;;;;;;21.83;17.13;;;;;;;21.78;100.00;102139.50;5031006;28;20120;-73
2023/09/08 08:40:33;;;;;;;23.35;17.17;;;;;;;21.90;100.00;102136.75;5029061;28;20040;-73
2023/09/08 08:43:00;;;;;;;15.98;13.38;;;;;;;21.86;100.00;102138.31;5030147;28;20424;-73
2023/09/08 08:45:26;;;;;;;14.73;12.48;;;;;;;21.79;100.00;102135.72;5029682;28;20040;-73
2023/09/08 08:47:53;;;;;;;15.52;12.70;;;;;;;21.94;100.00;102130.53;5026539;28;20128;-73
2023/09/08 08:50:19;;;;;;;14.57;12.95;;;;;;;22.05;100.00;102137.91;5027739;28;20160;-73
2023/09/08 08:52:46;;;;;;;14.75;13.18;;;;;;;22.22;100.00;102142.66;5028143;28;20051;-73
2023/09/08 08:55:15;;;;;;;16.40;13.20;;;;;;;21.86;100.00;102144.63;5031791;28;20408;-73
2023/09/08 08:57:41;;;;;;;17.23;14.00;;;;;;;22.08;100.00;102135.72;5033669;28;20456;-73
2023/09/08 09:00:11;;;;;;;17.60;13.05;;;;;;;22.27;100.00;102139.97;5027694;28;20098;-73
2023/09/08 09:02:41;;;;;;;14.43;12.27;;;;;;;22.49;100.00;102140.97;5015655;28;20029;-73
2023/09/08 09:05:12;;;;;;;12.38;11.07;;;;;;;22.84;100.00;102136.31;5030521;28;20079;-73
2023/09/08 09:07:39;;;;;;;14.90;12.10;;;;;;;23.07;100.00;102138.09;5039732;28;20026;-73
2023/09/08 09:10:06;;;;;;;12.38;10.90;;;;;;;23.22;100.00;102135.63;5047411;28;20029;-73
2023/09/08 09:12:31;;;;;;;11.45;10.10;;;;;;;23.40;100.00;102129.81;5035008;28;20082;-73
2023/09/08 09:14:59;;;;;;;11.52;9.75;;;;;;;23.58;100.00;102136.13;5035060;28;20029;-73
2023/09/08 09:17:25;;;;;;;13.60;10.75;;;;;;;23.60;100.00;102132.00;5033237;28;20406;-73
2023/09/08 09:19:50;;;;;;;12.65;10.57;;;;;;;23.73;100.00;102130.84;5033907;28;20052;-74
2023/09/08 09:22:21;;;;;;;11.73;9.27;;;;;;;23.84;100.00;102126.31;5034007;28;20029;-73
2023/09/08 09:24:47;;;;;;;10.15;9.15;;;;;;;23.86;100.00;102124.97;5033339;28;20025;-73
2023/09/08 09:27:13;;;;;;;11.77;8.60;;;;;;;23.77;100.00;102115.50;5033724;28;20029;-73
2023/09/08 09:29:47;;;;;;;9.10;8.20;;;;;;;24.04;100.00;102111.97;5033263;28;20033;-73
2023/09/08 09:32:13;;;;;;;10.95;8.95;;;;;;;24.15;100.00;102109.09;5033917;28;20120;-73
2023/09/08 09:34:49;;;;;;;10.23;7.90;;;;;;;24.31;100.00;102112.00;5035496;28;20435;-73
2023/09/08 09:37:15;;;;;;;13.77;9.07;;;;;;;24.38;100.00;102107.94;5031184;28;20096;-73
2023/09/08 09:39:41;;;;;;;9.80;8.25;;;;;;;24.45;99.00;102109.69;5030888;28;20104;-73
2023/09/08 09:42:06;;;;;;;9.57;7.90;;;;;;;24.60;98.42;102098.81;5022750;28;20064;-73
2023/09/08 09:44:32;;;;;;;8.60;7.70;;;;;;;24.60;98.20;102098.81;5036051;28;20084;-73
2023/09/08 09:47:00;;;;;;;8.02;7.00;;;;;;;24.56;97.61;102094.91;5034004;28;20064;-74
2023/09/08 09:49:31;;;;;;;10.82;6.72;;;;;;;24.66;96.74;102091.44;5028600;28;20060;-74
2023/09/08 09:51:58;;;;;;;8.98;6.60;;;;;;;24.77;96.25;102091.25;5013865;28;20840;-75
2023/09/08 09:54:23;;;;;;;8.75;6.30;;;;;;;24.95;95.33;102083.69;5024898;28;20385;-76
2023/09/08 09:56:52;;;;;;;7.90;5.97;;;;;;;25.06;94.30;102077.13;5027980;28;20020;-77
2023/09/08 09:59:18;;;;;;;6.82;5.90;;;;;;;25.01;94.61;102063.34;5010900;28;20025;-75
2023/09/08 10:01:44;;;;;;;7.57;5.80;;;;;;;25.27;93.52;102078.13;5030501;28;20459;-76
2023/09/08 10:04:10;;;;;;;6.93;5.70;;;;;;;25.36;92.68;102059.16;5033701;28;20040;-75
2023/09/08 10:06:37;;;;;;;8.60;5.80;;;;;;;25.54;92.07;102077.97;5037506;28;20033;-74
2023/09/08 10:09:08;;;;;;;6.18;5.35;;;;;;;25.64;90.46;102079.97;5032682;28;20035;-73
2023/09/08 10:11:49;;;;;;;5.97;5.30;;;;;;;25.89;88.61;102085.56;5026633;28;20032;-74
2023/09/08 10:14:15;;;;;;;8.30;5.30;;;;;;;25.90;89.27;102075.41;5028549;28;20068;-74
2023/09/08 10:16:44;;;;;;;9.90;5.07;;;;;;;25.87;89.33;102074.00;5047766;28;20044;-74
2023/09/08 10:19:11;;;;;;;7.40;5.35;;;;;;;25.59;88.94;102061.44;5059657;28;20437;-75
2023/09/08 10:21:42;;;;;;;7.20;5.03;;;;;;;25.67;88.32;102071.97;5034265;28;20026;-74
2023/09/08 10:24:26;;;;;;;9.73;5.38;;;;;;;25.66;88.27;102074.97;5033675;28;20108;-74
2023/09/08 10:27:08;;;;;;;8.65;5.03;;;;;;;25.71;87.94;102075.00;5033414;28;20022;-74
2023/09/08 10:29:34;;;;;;;6.85;5.03;;;;;;;25.75;87.83;102065.91;5025989;28;20040;-74
2023/09/08 10:32:02;;;;;;;7.57;5.00;;;;;;;25.85;87.35;102067.09;5029635;28;20039;-74
2023/09/08 10:34:29;;;;;;;6.95;5.13;;;;;;;25.96;85.81;102075.13;5032861;28;20095;-75
2023/09/08 10:36:55;;;;;;;7.00;4.72;;;;;;;26.07;85.36;102064.94;5031994;28;20041;-75
2023/09/08 10:39:30;;;;;;;11.27;4.80;;;;;;;26.16;85.60;102055.03;5033443;28;20036;-75
2023/09/08 10:42:18;;;;;;;6.78;5.00;;;;;;;26.28;84.33;102056.69;5031982;28;20498;-74
2023/09/08 10:44:49;;;;;;;9.18;4.90;;;;;;;26.38;84.05;102053.94;5029028;28;20036;-74
2023/09/08 10:47:22;;;;;;;6.78;4.53;;;;;;;26.49;83.51;102052.88;5030038;28;20377;-74
2023/09/08 10:49:47;;;;;;;6.82;4.85;;;;;;;26.51;82.95;102045.13;5015854;28;20026;-74
2023/09/08 10:52:13;;;;;;;8.23;5.05;;;;;;;26.60;82.90;102045.41;5032933;28;20042;-74
2023/09/08 10:54:47;;;;;;;5.70;4.53;;;;;;;26.61;82.57;102036.84;5030186;28;20040;-75
2023/09/08 10:57:15;;;;;;;7.75;5.22;;;;;;;26.70;81.71;102054.53;5030245;28;20044;-74
2023/09/08 10:59:45;;;;;;;10.68;4.93;;;;;;;26.69;81.80;102047.34;5032045;28;20558;-74